International Virtual Aviation Organisation

Russian Federation and Kazakhstan MCD

 

Карточка аэропорта ULMM

Внимание!
Информация на этой странице в стадии наполнения.
Если вы не увидели какой-то информации, или заметили неточность - пожалуйста сообщите нам!
Спасибо!
Команда RU-STAFF
Название аэропортаМурманск
Название аэропорта (англ.)Murmansk
Превышение262 ft. (79.9 m.)
Координаты68°46.902', 32°45.066'
Высота перехода900m
Эшелон переходаQFE>=753mm:FL050; QFE<753=>727:FL060; QFE<727:FL070
Коды ответчика3101-3117
Зона ОрВДМурманск РПИ (ULMM)
Данные METARNODATA
Проноз погоды (TAF)ULMM 140754Z 1409/1509 04003MPS 9999 BKN011 TEMPO 1409/1418 36003MPS 3100 -SHSN BR BKN011CB BECMG 1418/1420 3100 BR TEMPO 1420/1509 VRB01MPS 0300 -SHSNRA FZFG VV003
NOTAMshow/hide NOTAM
AWOS   TABLE

Информация о ВПП

ВПП Длина ВПП (м.) Покрытие Курс ВПП Частота ILS
132500Асфальтобетон131110.3
312500Асфальтобетон311108.5

Диспетчерские позиции




Спутниковое изображение